Time;durP1;ratioP1;P1;durP2;ratioP2;P2;SDS_P1;SDS_P2;PMS_P1;PMS_P2;Temp;Humidity;BMP_temperature;BMP_pressure;BME280_temperature;BME280_humidity;BME280_pressure;Samples;Min_cycle;Max_cycle;Signal;HPM_P1;HPM_P2
2022/11/20 00:00:36;;;;;;;23.00;12.50;;;3.30;99.90;;;;;;4155249;28;20045;-66
2022/11/20 00:02:37;;;;;;;23.10;12.45;;;3.30;99.90;;;;;;4151820;28;20498;-66
2022/11/20 00:04:37;;;;;;;24.15;13.15;;;3.30;99.90;;;;;;4153661;28;20508;-66
2022/11/20 00:06:38;;;;;;;27.35;13.70;;;3.30;99.90;;;;;;4146502;28;20033;-66
2022/11/20 00:08:39;;;;;;;27.65;13.77;;;3.30;99.90;;;;;;4157862;28;20018;-66
2022/11/20 00:10:40;;;;;;;31.23;14.63;;;3.30;99.90;;;;;;4143082;28;20038;-66
2022/11/20 00:12:41;;;;;;;22.60;11.93;;;3.30;99.90;;;;;;4149284;28;20648;-66
2022/11/20 00:14:41;;;;;;;19.58;11.25;;;3.20;99.90;;;;;;4147959;28;20030;-65
2022/11/20 00:16:42;;;;;;;19.63;11.73;;;3.20;99.90;;;;;;4142599;28;20117;-66
2022/11/20 00:18:43;;;;;;;20.13;11.13;;;3.20;99.90;;;;;;4149461;28;20037;-65
2022/11/20 00:20:44;;;;;;;18.90;11.13;;;3.20;99.90;;;;;;4153923;28;20064;-65
2022/11/20 00:22:44;;;;;;;17.33;10.27;;;3.20;99.90;;;;;;4143548;28;20030;-66
2022/11/20 00:24:45;;;;;;;17.15;10.73;;;3.20;99.90;;;;;;4136437;28;20506;-66
2022/11/20 00:26:46;;;;;;;18.35;10.50;;;3.20;99.90;;;;;;4155738;28;20164;-66
2022/11/20 00:28:55;;;;;;;17.25;9.63;;;3.10;99.90;;;;;;4142915;28;20045;-65
2022/11/20 00:31:22;;;;;;;19.52;10.50;;;3.10;99.90;;;;;;4147531;28;20073;-67
2022/11/20 00:33:23;;;;;;;16.85;10.63;;;3.10;99.90;;;;;;4145888;28;20037;-65
2022/11/20 00:35:23;;;;;;;17.40;10.90;;;3.10;99.90;;;;;;4149166;28;20383;-65
2022/11/20 00:37:24;;;;;;;18.58;11.00;;;3.10;99.90;;;;;;4156239;28;20399;-66
2022/11/20 00:39:24;;;;;;;17.50;10.82;;;3.10;99.90;;;;;;4141343;28;20026;-66
2022/11/20 00:41:27;;;;;;;16.95;10.68;;;3.10;99.90;;;;;;4151052;28;20042;-66
2022/11/20 00:43:27;;;;;;;;;;;3.10;99.90;;;;;;4155425;28;20043;-65
2022/11/20 00:45:28;;;;;;;16.58;10.02;;;3.10;99.90;;;;;;4146996;28;19964;-67
2022/11/20 00:47:29;;;;;;;16.25;10.40;;;3.10;99.90;;;;;;4155517;28;20033;-65
2022/11/20 00:49:29;;;;;;;19.48;11.05;;;3.10;99.90;;;;;;4150790;28;20084;-65
2022/11/20 00:51:30;;;;;;;19.45;11.30;;;3.10;99.90;;;;;;4153557;28;20422;-66
2022/11/20 00:53:31;;;;;;;18.50;10.90;;;3.10;99.90;;;;;;4156395;28;20498;-66
2022/11/20 00:55:31;;;;;;;18.60;11.02;;;3.10;99.90;;;;;;4145213;28;20383;-65
2022/11/20 00:57:32;;;;;;;17.13;10.43;;;3.10;99.90;;;;;;4156615;28;20036;-65
2022/11/20 00:59:32;;;;;;;17.58;10.55;;;3.10;99.90;;;;;;4136827;28;20031;-65
2022/11/20 01:01:33;;;;;;;18.40;10.65;;;3.10;99.90;;;;;;4151771;28;20186;-65
2022/11/20 01:03:35;;;;;;;18.13;10.88;;;3.10;99.90;;;;;;4163152;28;20037;-66
2022/11/20 01:05:36;;;;;;;;;;;3.10;99.90;;;;;;4158911;28;20037;-65
2022/11/20 01:07:37;;;;;;;17.83;10.52;;;3.10;99.90;;;;;;4149549;28;19914;-65
2022/11/20 01:09:37;;;;;;;19.02;11.38;;;3.10;99.90;;;;;;4141179;28;20072;-65
2022/11/20 01:11:42;;;;;;;18.83;10.98;;;3.10;99.90;;;;;;4146163;28;20084;-65
2022/11/20 01:13:44;;;;;;;18.73;10.50;;;3.10;99.90;;;;;;4152299;28;20552;-65
2022/11/20 01:15:45;;;;;;;;;;;3.00;99.90;;;;;;4153040;28;20029;-65
2022/11/20 01:17:45;;;;;;;16.13;9.95;;;3.00;99.90;;;;;;4153250;28;19916;-65
2022/11/20 01:19:49;;;;;;;19.05;10.82;;;3.00;99.90;;;;;;4147863;28;20544;-65
2022/11/20 01:21:52;;;;;;;17.75;10.57;;;3.00;99.90;;;;;;4145781;28;20116;-65
2022/11/20 01:23:53;;;;;;;17.08;10.57;;;3.00;99.90;;;;;;4147017;28;20037;-65
2022/11/20 01:25:54;;;;;;;17.80;10.80;;;3.00;99.90;;;;;;4141836;28;20046;-66
2022/11/20 01:27:55;;;;;;;18.00;10.70;;;3.00;99.90;;;;;;4153394;28;20034;-65
2022/11/20 01:29:55;;;;;;;17.13;10.57;;;3.00;99.90;;;;;;4156611;28;20033;-66
2022/11/20 01:31:56;;;;;;;17.75;10.70;;;3.00;99.90;;;;;;4150293;28;20056;-65
2022/11/20 01:33:59;;;;;;;19.95;10.95;;;3.00;99.90;;;;;;4146253;28;20053;-66
2022/11/20 01:36:04;;;;;;;16.80;10.43;;;3.00;99.90;;;;;;4149603;28;20394;-65
2022/11/20 01:38:04;;;;;;;15.27;9.73;;;3.00;99.90;;;;;;4156928;28;21683;-65
2022/11/20 01:40:05;;;;;;;18.38;10.65;;;2.90;99.90;;;;;;4149339;28;20371;-65
2022/11/20 01:44:47;;;;;;;18.15;10.65;;;3.00;99.90;;;;;;4145290;28;20022;-65
2022/11/20 01:47:01;;;;;;;22.83;9.85;;;2.90;99.90;;;;;;4148354;28;20176;-66
2022/11/20 01:49:08;;;;;;;16.30;10.15;;;3.00;99.90;;;;;;4142674;28;20037;-65
2022/11/20 01:51:16;;;;;;;19.70;10.52;;;2.90;99.90;;;;;;4157661;28;20037;-65
2022/11/20 01:53:21;;;;;;;18.45;11.15;;;2.90;99.90;;;;;;4150369;28;20042;-66
2022/11/20 01:55:26;;;;;;;17.27;10.25;;;2.90;99.90;;;;;;4144851;28;20041;-66
2022/11/20 01:57:31;;;;;;;18.73;10.07;;;2.90;99.90;;;;;;4148744;28;20033;-65
2022/11/20 01:59:33;;;;;;;16.42;9.90;;;2.90;99.90;;;;;;4155439;28;20049;-65
2022/11/20 02:01:34;;;;;;;17.25;10.75;;;2.90;99.90;;;;;;4150474;28;20042;-70
2022/11/20 02:03:36;;;;;;;19.35;11.27;;;2.90;99.90;;;;;;4153005;28;20064;-69
2022/11/20 02:05:55;;;;;;;16.00;10.00;;;2.80;99.90;;;;;;4144976;28;20059;-69
2022/11/20 02:07:58;;;;;;;18.80;10.77;;;2.70;99.90;;;;;;4153806;28;20490;-70
2022/11/20 02:09:59;;;;;;;17.73;10.85;;;2.70;99.90;;;;;;4156287;28;20108;-70
2022/11/20 02:12:00;;;;;;;18.73;10.85;;;2.80;99.90;;;;;;4149030;28;20064;-70
2022/11/20 02:14:01;;;;;;;18.25;11.57;;;2.70;99.90;;;;;;4141857;28;20030;-70
2022/11/20 02:16:03;;;;;;;16.45;10.35;;;2.70;99.90;;;;;;4154705;28;20030;-69
2022/11/20 02:18:05;;;;;;;19.00;10.27;;;2.70;99.90;;;;;;4154295;28;20030;-70
2022/11/20 02:20:06;;;;;;;18.38;11.27;;;2.70;99.90;;;;;;4149215;28;20490;-69
2022/11/20 02:22:22;;;;;;;16.13;10.77;;;2.70;99.90;;;;;;4155073;28;20064;-70
2022/11/20 02:24:23;;;;;;;18.67;11.27;;;2.80;99.90;;;;;;4149096;28;20037;-70
2022/11/20 02:26:25;;;;;;;18.92;11.82;;;2.80;99.90;;;;;;4157445;28;20026;-69
2022/11/20 02:28:26;;;;;;;18.25;11.50;;;2.80;99.90;;;;;;4155408;28;20040;-70
2022/11/20 02:30:26;;;;;;;19.65;11.88;;;2.80;99.90;;;;;;4149616;28;20112;-69
2022/11/20 02:32:30;;;;;;;21.48;11.13;;;2.90;99.90;;;;;;4156506;28;20048;-70
2022/11/20 02:34:31;;;;;;;19.17;12.10;;;2.90;99.90;;;;;;4156873;28;20046;-70
2022/11/20 02:36:35;;;;;;;18.45;11.07;;;2.80;99.90;;;;;;4154621;28;20506;-70
2022/11/20 02:38:35;;;;;;;21.77;12.32;;;2.80;99.90;;;;;;4154384;28;20037;-70
2022/11/20 02:40:36;;;;;;;21.90;12.40;;;2.80;99.90;;;;;;4146199;28;20061;-69
2022/11/20 02:42:37;;;;;;;19.38;11.50;;;2.80;99.90;;;;;;4157788;28;20025;-69
2022/11/20 02:44:38;;;;;;;17.60;10.77;;;2.90;99.90;;;;;;4151062;28;20034;-70
2022/11/20 02:46:38;;;;;;;20.33;11.90;;;2.90;99.90;;;;;;4130496;28;20038;-70
2022/11/20 02:48:39;;;;;;;19.10;11.68;;;2.90;99.90;;;;;;4145684;28;20148;-70
2022/11/20 02:50:40;;;;;;;18.38;11.05;;;2.90;99.90;;;;;;4148221;28;20072;-70
2022/11/20 02:52:41;;;;;;;18.40;12.13;;;2.90;99.90;;;;;;4150810;28;20057;-71
2022/11/20 02:54:41;;;;;;;20.02;11.63;;;2.90;99.90;;;;;;4145354;28;20074;-70
2022/11/20 02:56:43;;;;;;;20.20;11.00;;;3.00;99.90;;;;;;4146994;28;20037;-70
2022/11/20 02:58:43;;;;;;;19.50;11.88;;;3.00;99.90;;;;;;4150877;28;20466;-69
2022/11/20 03:00:44;;;;;;;21.42;12.40;;;3.00;99.90;;;;;;4146400;28;20062;-70
2022/11/20 03:02:45;;;;;;;19.20;12.35;;;3.00;99.90;;;;;;4149896;28;20041;-70
2022/11/20 03:04:45;;;;;;;18.00;11.60;;;3.00;99.90;;;;;;4159036;28;20030;-70
2022/11/20 03:06:46;;;;;;;20.95;12.77;;;3.00;99.90;;;;;;4147567;28;20108;-69
2022/11/20 03:08:46;;;;;;;20.27;12.18;;;3.00;99.90;;;;;;4136757;28;20068;-71
2022/11/20 03:10:47;;;;;;;21.58;13.68;;;3.00;99.90;;;;;;4150271;28;20442;-69
2022/11/20 03:12:53;;;;;;;19.38;12.25;;;3.00;99.90;;;;;;4143600;28;20069;-69
2022/11/20 03:14:53;;;;;;;21.17;12.90;;;3.00;99.90;;;;;;4144037;28;20080;-70
2022/11/20 03:16:55;;;;;;;21.70;12.57;;;3.00;99.90;;;;;;4157821;28;20025;-70
2022/11/20 03:18:55;;;;;;;20.90;12.82;;;3.00;99.90;;;;;;4152292;28;20084;-70
2022/11/20 03:20:59;;;;;;;21.65;12.23;;;3.00;99.90;;;;;;4148488;28;20454;-70
2022/11/20 03:23:00;;;;;;;21.20;13.15;;;3.00;99.90;;;;;;4149708;28;20152;-70
2022/11/20 03:25:00;;;;;;;21.35;13.23;;;3.00;99.90;;;;;;4148151;28;20042;-69
2022/11/20 03:27:01;;;;;;;20.25;11.57;;;2.90;99.90;;;;;;4151630;28;20399;-69
2022/11/20 03:29:04;;;;;;;17.63;11.30;;;3.00;99.90;;;;;;4145050;28;20085;-69
2022/11/20 03:31:10;;;;;;;19.38;11.75;;;3.00;99.90;;;;;;4157374;28;20113;-70
2022/11/20 03:33:11;;;;;;;19.50;12.57;;;3.00;99.90;;;;;;4134874;28;20066;-69
2022/11/20 03:35:11;;;;;;;16.42;11.35;;;2.90;99.90;;;;;;4158535;28;20440;-69
2022/11/20 03:37:12;;;;;;;16.67;11.15;;;3.00;99.90;;;;;;4154005;28;20517;-70
2022/11/20 03:39:13;;;;;;;18.42;11.20;;;3.00;99.90;;;;;;4154676;28;20160;-69
2022/11/20 03:41:19;;;;;;;17.98;11.70;;;3.00;99.90;;;;;;4154740;28;20030;-70
2022/11/20 03:43:19;;;;;;;20.77;11.68;;;3.10;99.90;;;;;;4144418;28;20129;-69
2022/11/20 03:45:20;;;;;;;20.60;13.07;;;3.00;99.90;;;;;;4147901;28;20045;-69
2022/11/20 03:47:21;;;;;;;22.98;12.65;;;3.10;99.90;;;;;;4143774;28;20123;-70
2022/11/20 03:49:21;;;;;;;19.55;12.23;;;3.10;99.90;;;;;;4128561;28;20035;-70
2022/11/20 03:51:28;;;;;;;22.13;13.32;;;3.10;99.90;;;;;;4154009;28;20030;-70
2022/11/20 03:53:28;;;;;;;18.75;12.15;;;3.20;99.90;;;;;;4149879;28;20037;-69
2022/11/20 03:55:29;;;;;;;19.35;12.57;;;3.20;99.90;;;;;;4153845;28;20088;-70
2022/11/20 03:57:29;;;;;;;20.00;11.63;;;3.20;99.90;;;;;;4149702;28;20475;-70
2022/11/20 03:59:30;;;;;;;19.85;12.05;;;3.10;99.90;;;;;;4143728;28;20030;-71
2022/11/20 04:01:37;;;;;;;21.50;12.05;;;3.20;99.90;;;;;;4145319;28;20084;-68
2022/11/20 04:03:38;;;;;;;19.70;11.45;;;3.20;99.90;;;;;;4144984;28;20411;-68
2022/11/20 04:05:39;;;;;;;19.30;12.45;;;3.20;99.90;;;;;;4130177;28;20034;-67
2022/11/20 04:07:40;;;;;;;20.50;11.68;;;3.20;99.90;;;;;;4148613;28;20036;-67
2022/11/20 04:09:40;;;;;;;21.40;11.55;;;3.20;99.90;;;;;;4151868;28;20033;-68
2022/11/20 04:11:41;;;;;;;21.25;13.18;;;3.20;99.90;;;;;;4148645;28;20113;-68
2022/11/20 04:13:45;;;;;;;22.15;13.00;;;3.20;99.90;;;;;;4157343;28;20033;-67
2022/11/20 04:15:46;;;;;;;21.58;12.48;;;3.20;99.90;;;;;;4152377;28;20034;-68
2022/11/20 04:17:46;;;;;;;20.00;11.93;;;3.20;99.90;;;;;;4153233;28;20045;-67
2022/11/20 04:19:47;;;;;;;17.42;11.32;;;3.20;99.90;;;;;;4155657;28;20037;-68
2022/11/20 04:21:47;;;;;;;22.85;12.93;;;3.20;99.90;;;;;;4148702;28;20038;-69
2022/11/20 04:23:49;;;;;;;20.90;12.75;;;3.20;99.90;;;;;;4148598;28;20417;-68
2022/11/20 04:25:50;;;;;;;20.60;12.57;;;3.20;99.90;;;;;;4142766;28;20080;-68
2022/11/20 04:27:50;;;;;;;21.52;12.82;;;3.20;99.90;;;;;;4145052;28;20042;-68
2022/11/20 04:29:51;;;;;;;23.02;13.27;;;3.20;99.90;;;;;;4148194;28;20033;-68
2022/11/20 04:31:51;;;;;;;25.92;13.18;;;3.20;99.90;;;;;;4143897;28;20399;-68
2022/11/20 04:33:52;;;;;;;19.55;11.73;;;3.20;99.90;;;;;;4148481;28;20040;-69
2022/11/20 04:35:53;;;;;;;20.73;12.15;;;3.20;99.90;;;;;;4131734;28;20041;-68
2022/11/20 04:37:53;;;;;;;19.48;12.38;;;3.20;99.90;;;;;;4154447;28;20429;-68
2022/11/20 04:39:54;;;;;;;21.15;12.60;;;3.10;99.90;;;;;;4152248;28;20052;-68
2022/11/20 04:44:13;;;;;;;17.42;11.35;;;3.10;99.90;;;;;;4151641;28;20087;-70
2022/11/20 04:46:15;;;;;;;19.48;11.85;;;3.10;99.90;;;;;;4142719;28;20034;-68
2022/11/20 04:48:15;;;;;;;18.45;11.48;;;3.10;99.90;;;;;;4144302;28;20048;-68
2022/11/20 04:50:16;;;;;;;20.02;12.60;;;3.10;99.90;;;;;;4148157;28;20473;-68
2022/11/20 04:52:16;;;;;;;20.35;12.00;;;3.10;99.90;;;;;;4153527;28;20077;-68
2022/11/20 04:54:17;;;;;;;21.52;12.93;;;3.10;99.90;;;;;;4144588;28;20141;-68
2022/11/20 04:56:18;;;;;;;19.40;11.88;;;3.00;99.90;;;;;;4131389;28;20124;-67
2022/11/20 04:58:18;;;;;;;20.85;11.82;;;3.10;99.90;;;;;;4147824;28;20487;-67
2022/11/20 05:00:19;;;;;;;16.83;11.32;;;3.10;99.90;;;;;;4143149;28;20034;-68
2022/11/20 05:02:20;;;;;;;18.63;11.40;;;3.10;99.90;;;;;;4148577;28;20046;-67
2022/11/20 05:04:20;;;;;;;20.75;12.02;;;3.10;99.90;;;;;;4146699;28;20223;-66
2022/11/20 05:06:22;;;;;;;21.52;12.20;;;3.10;99.90;;;;;;4143461;28;20025;-67
2022/11/20 05:08:22;;;;;;;22.50;12.43;;;3.10;99.90;;;;;;4151327;28;20131;-67
2022/11/20 05:10:24;;;;;;;20.48;12.20;;;3.10;99.90;;;;;;4151307;28;20084;-67
2022/11/20 05:12:24;;;;;;;19.97;12.50;;;3.10;99.90;;;;;;4135012;28;20031;-67
2022/11/20 05:14:25;;;;;;;19.95;12.55;;;3.10;99.90;;;;;;4156420;28;20486;-67
2022/11/20 05:16:26;;;;;;;17.63;11.02;;;3.10;99.90;;;;;;4152750;28;20486;-69
2022/11/20 05:18:26;;;;;;;18.95;11.35;;;3.10;99.90;;;;;;4153690;28;20505;-68
2022/11/20 05:20:27;;;;;;;17.13;10.50;;;3.10;99.90;;;;;;4154129;28;20048;-68
2022/11/20 05:22:27;;;;;;;18.08;11.70;;;3.10;99.90;;;;;;4159946;28;20067;-67
2022/11/20 05:24:28;;;;;;;18.17;11.45;;;3.10;99.90;;;;;;4155550;28;20062;-68
2022/11/20 05:26:28;;;;;;;18.27;11.75;;;3.20;99.90;;;;;;4151970;28;20041;-67
2022/11/20 05:28:30;;;;;;;17.55;11.00;;;3.10;99.90;;;;;;4151147;28;20033;-67
2022/11/20 05:30:31;;;;;;;17.53;10.97;;;3.10;99.90;;;;;;4156423;28;20112;-67
2022/11/20 05:32:31;;;;;;;15.80;10.52;;;3.20;99.90;;;;;;4147946;28;20050;-67
2022/11/20 05:34:32;;;;;;;18.75;11.43;;;3.10;99.90;;;;;;4152341;28;20549;-67
2022/11/20 05:36:33;;;;;;;16.83;10.60;;;3.20;99.90;;;;;;4144510;28;20030;-67
2022/11/20 05:38:34;;;;;;;18.23;11.65;;;3.20;99.90;;;;;;4145783;28;20031;-67
2022/11/20 05:40:34;;;;;;;17.98;10.32;;;3.20;99.90;;;;;;4151080;28;20091;-67
2022/11/20 05:42:35;;;;;;;18.50;11.32;;;3.20;99.90;;;;;;4157745;28;20032;-67
2022/11/20 05:44:36;;;;;;;18.35;11.38;;;3.10;99.90;;;;;;4140656;28;20041;-67
2022/11/20 05:46:36;;;;;;;18.63;10.75;;;3.20;99.90;;;;;;4153850;28;20030;-67
2022/11/20 05:48:38;;;;;;;19.55;11.25;;;3.20;99.90;;;;;;4158695;28;21106;-67
2022/11/20 05:50:39;;;;;;;17.55;11.10;;;3.20;99.90;;;;;;4155839;28;20045;-67
2022/11/20 05:52:39;;;;;;;18.55;10.68;;;3.20;99.90;;;;;;4147100;28;20502;-67
2022/11/20 05:54:40;;;;;;;19.63;11.75;;;3.20;99.90;;;;;;4159187;28;20029;-68
2022/11/20 05:56:40;;;;;;;17.90;11.35;;;3.20;99.90;;;;;;4153037;28;20732;-68
2022/11/20 05:58:42;;;;;;;22.00;11.98;;;3.20;99.90;;;;;;4152005;28;20026;-67
2022/11/20 06:00:42;;;;;;;17.52;11.48;;;3.20;99.90;;;;;;4154909;28;20088;-67
2022/11/20 06:02:43;;;;;;;19.15;11.75;;;3.30;99.90;;;;;;4146816;28;20445;-67
2022/11/20 06:04:43;;;;;;;19.05;11.20;;;3.30;99.90;;;;;;4153978;28;20038;-67
2022/11/20 06:06:44;;;;;;;19.80;12.10;;;3.30;99.90;;;;;;4146188;28;20029;-67
2022/11/20 06:08:45;;;;;;;19.00;11.68;;;3.30;99.90;;;;;;4158614;28;20065;-67
2022/11/20 06:10:46;;;;;;;18.02;10.77;;;3.30;99.90;;;;;;4155797;28;20050;-67
2022/11/20 06:12:46;;;;;;;19.98;12.25;;;3.40;99.90;;;;;;4152547;28;20030;-67
2022/11/20 06:14:47;;;;;;;19.27;12.15;;;3.40;99.90;;;;;;4155283;28;20040;-67
2022/11/20 06:16:47;;;;;;;19.45;11.63;;;3.40;99.90;;;;;;4159778;28;20064;-67
2022/11/20 06:18:48;;;;;;;17.65;11.32;;;3.40;99.90;;;;;;4160216;28;20585;-66
2022/11/20 06:20:49;;;;;;;19.30;11.73;;;3.40;99.90;;;;;;4155512;28;20037;-67
2022/11/20 06:22:49;;;;;;;18.95;11.85;;;3.40;99.90;;;;;;4155740;28;20030;-67
2022/11/20 06:24:50;;;;;;;18.60;11.57;;;3.40;99.90;;;;;;4154426;28;20133;-67
2022/11/20 06:26:51;;;;;;;16.83;10.93;;;3.40;99.90;;;;;;4156540;28;20040;-67
2022/11/20 06:28:52;;;;;;;19.38;10.95;;;3.40;99.90;;;;;;4157326;28;20034;-67
2022/11/20 06:30:53;;;;;;;19.73;12.07;;;3.50;99.90;;;;;;4152852;28;20032;-67
2022/11/20 06:32:53;;;;;;;20.60;12.20;;;3.40;99.90;;;;;;4145438;28;20029;-67
2022/11/20 06:34:54;;;;;;;18.30;11.50;;;3.50;99.90;;;;;;4113936;28;1079998;-67
2022/11/20 06:36:54;;;;;;;19.40;11.68;;;3.50;99.90;;;;;;4152963;28;20030;-67
2022/11/20 06:38:55;;;;;;;18.92;11.98;;;3.50;99.90;;;;;;4161219;28;20064;-69
2022/11/20 06:40:55;;;;;;;21.77;13.65;;;3.50;99.90;;;;;;4154413;28;20075;-67
2022/11/20 06:42:56;;;;;;;24.08;14.80;;;3.50;99.90;;;;;;4160432;28;20103;-67
2022/11/20 06:44:56;;;;;;;25.10;14.68;;;3.50;99.90;;;;;;4162857;28;20438;-67
2022/11/20 06:46:57;;;;;;;21.92;13.57;;;3.50;99.90;;;;;;4153512;28;20478;-67
2022/11/20 06:48:58;;;;;;;23.33;13.35;;;3.50;99.90;;;;;;4158231;28;20038;-67
2022/11/20 06:50:59;;;;;;;20.85;12.75;;;3.50;99.90;;;;;;4157281;28;20456;-67
2022/11/20 06:53:04;;;;;;;22.08;13.50;;;3.50;99.90;;;;;;4158982;28;20056;-67
2022/11/20 06:55:05;;;;;;;22.65;12.50;;;3.50;99.90;;;;;;4149874;28;20502;-67
2022/11/20 06:57:06;;;;;;;18.77;11.85;;;3.50;99.90;;;;;;4147175;28;20061;-67
2022/11/20 06:59:07;;;;;;;19.05;11.77;;;3.50;99.90;;;;;;4152104;28;20026;-67
2022/11/20 07:01:10;;;;;;;20.35;12.30;;;3.50;99.90;;;;;;4142637;28;20465;-67
2022/11/20 07:03:12;;;;;;;16.55;11.02;;;3.60;99.90;;;;;;4152363;28;20037;-67
2022/11/20 07:05:13;;;;;;;22.67;12.80;;;3.60;99.90;;;;;;4152005;28;20088;-67
2022/11/20 07:07:13;;;;;;;18.40;11.77;;;3.60;99.90;;;;;;4150489;28;20573;-67
2022/11/20 07:09:14;;;;;;;19.02;12.60;;;3.60;99.90;;;;;;4141672;28;20550;-67
2022/11/20 07:11:15;;;;;;;21.85;11.82;;;3.60;99.90;;;;;;4153674;28;20038;-67
2022/11/20 07:13:15;;;;;;;18.98;12.13;;;3.60;99.90;;;;;;4153317;28;20080;-68
2022/11/20 07:15:16;;;;;;;19.58;12.55;;;3.70;99.90;;;;;;4148834;28;20060;-66
2022/11/20 07:17:17;;;;;;;18.48;11.95;;;3.70;99.90;;;;;;4149117;28;20045;-67
2022/11/20 07:19:17;;;;;;;20.05;12.55;;;3.70;99.90;;;;;;4156609;28;20099;-66
2022/11/20 07:21:18;;;;;;;20.10;12.13;;;3.70;99.90;;;;;;4143865;28;20029;-66
2022/11/20 07:23:19;;;;;;;19.10;11.18;;;3.70;99.90;;;;;;4146699;28;20448;-67
2022/11/20 07:25:19;;;;;;;19.05;12.63;;;3.60;99.90;;;;;;4149268;28;20056;-66
2022/11/20 07:27:20;;;;;;;16.55;11.02;;;3.70;99.90;;;;;;4150677;28;20184;-66
2022/11/20 07:29:20;;;;;;;17.63;12.02;;;3.70;99.90;;;;;;4155113;28;20033;-67
2022/11/20 07:31:21;;;;;;;18.05;10.85;;;3.70;99.90;;;;;;4126530;28;20128;-66
2022/11/20 07:33:21;;;;;;;20.08;11.80;;;3.70;99.90;;;;;;4144554;28;20509;-66
2022/11/20 07:35:25;;;;;;;20.13;12.70;;;3.70;99.90;;;;;;4144680;28;20128;-66
2022/11/20 07:37:26;;;;;;;19.50;12.15;;;3.70;99.90;;;;;;4144552;28;20069;-67
2022/11/20 07:39:26;;;;;;;18.63;12.07;;;3.70;99.90;;;;;;4152741;28;20029;-66
2022/11/20 07:41:27;;;;;;;17.08;10.77;;;3.70;99.90;;;;;;4154360;28;20042;-66
2022/11/20 07:43:28;;;;;;;17.52;11.65;;;3.70;99.90;;;;;;4138226;28;20092;-66
2022/11/20 07:45:28;;;;;;;18.00;10.93;;;3.70;99.90;;;;;;4147136;28;20714;-66
2022/11/20 07:47:34;;;;;;;20.25;12.50;;;3.70;99.90;;;;;;4155282;28;20393;-67
2022/11/20 07:49:34;;;;;;;17.65;11.05;;;3.70;99.90;;;;;;4154793;28;20038;-67
2022/11/20 07:51:35;;;;;;;19.77;11.88;;;3.60;99.90;;;;;;4155660;28;20053;-66
2022/11/20 07:53:36;;;;;;;18.58;11.68;;;3.70;99.90;;;;;;4155562;28;20376;-66
2022/11/20 07:55:36;;;;;;;23.48;14.35;;;3.70;99.90;;;;;;4148782;28;20115;-66
2022/11/20 07:57:37;;;;;;;17.67;11.75;;;3.70;99.90;;;;;;4150748;28;20033;-66
2022/11/20 07:59:38;;;;;;;15.70;11.00;;;3.70;99.90;;;;;;4135318;28;20039;-67
2022/11/20 08:01:40;;;;;;;19.67;11.85;;;3.70;99.90;;;;;;4158872;28;20385;-66
2022/11/20 08:03:40;;;;;;;16.85;11.07;;;3.70;99.90;;;;;;4148722;28;20113;-67
2022/11/20 08:05:41;;;;;;;19.88;11.90;;;3.70;99.90;;;;;;4156330;28;20529;-67
2022/11/20 08:07:43;;;;;;;17.65;11.90;;;3.70;99.90;;;;;;4156495;28;20026;-66
2022/11/20 08:09:44;;;;;;;18.98;11.38;;;3.70;99.90;;;;;;4155093;28;20052;-66
2022/11/20 08:14:13;;;;;;;18.77;12.38;;;3.80;99.90;;;;;;4158520;28;20036;-67
2022/11/20 08:16:13;;;;;;;17.77;11.40;;;3.80;99.90;;;;;;4146579;28;20034;-66
2022/11/20 08:18:14;;;;;;;17.95;11.80;;;3.80;99.90;;;;;;4146314;28;20124;-67
2022/11/20 08:20:14;;;;;;;18.73;11.25;;;3.80;99.90;;;;;;4148441;28;20084;-69
2022/11/20 08:22:17;;;;;;;18.40;11.27;;;3.80;99.90;;;;;;4154997;28;20045;-68
2022/11/20 08:24:18;;;;;;;18.33;11.55;;;3.80;99.90;;;;;;4144474;28;20470;-68
2022/11/20 08:26:18;;;;;;;16.92;11.50;;;3.80;99.90;;;;;;4149559;28;20060;-67
2022/11/20 08:28:19;;;;;;;19.08;11.70;;;3.90;99.90;;;;;;4155758;28;20041;-67
2022/11/20 08:30:19;;;;;;;19.92;12.43;;;4.00;99.90;;;;;;4150029;28;20033;-68
2022/11/20 08:32:20;;;;;;;22.05;13.20;;;4.10;99.90;;;;;;4148657;28;20037;-67
2022/11/20 08:34:20;;;;;;;20.02;13.00;;;4.20;99.90;;;;;;4149434;28;20106;-67
2022/11/20 08:36:22;;;;;;;20.45;12.73;;;4.40;99.90;;;;;;4155547;28;20049;-68
2022/11/20 08:38:23;;;;;;;18.43;12.07;;;4.50;99.90;;;;;;4145014;28;20030;-68
2022/11/20 08:40:23;;;;;;;19.92;12.48;;;4.60;99.90;;;;;;4143159;28;20049;-68
2022/11/20 08:42:24;;;;;;;20.38;12.68;;;4.60;99.90;;;;;;4129870;28;20539;-67
2022/11/20 08:44:25;;;;;;;18.85;12.52;;;4.80;99.90;;;;;;4145329;28;20030;-68
2022/11/20 08:46:30;;;;;;;19.60;12.43;;;4.90;99.90;;;;;;4150446;28;20124;-68
2022/11/20 08:48:31;;;;;;;20.73;13.18;;;5.00;99.90;;;;;;4157170;28;20053;-68
2022/11/20 08:50:32;;;;;;;21.65;13.23;;;5.20;99.90;;;;;;4133127;28;20026;-68
2022/11/20 08:52:32;;;;;;;18.50;12.35;;;5.30;99.90;;;;;;4148997;28;20467;-67
2022/11/20 08:54:33;;;;;;;20.65;13.85;;;5.40;99.90;;;;;;4149574;28;20034;-68
2022/11/20 08:56:34;;;;;;;20.33;13.38;;;5.50;99.90;;;;;;4142792;28;20030;-67
2022/11/20 08:58:35;;;;;;;20.45;12.77;;;5.50;99.90;;;;;;4143118;28;20097;-67
2022/11/20 09:00:35;;;;;;;20.17;13.43;;;5.70;99.90;;;;;;4153577;28;20033;-68
2022/11/20 09:02:36;;;;;;;20.75;13.95;;;5.70;99.90;;;;;;4149418;28;20063;-68
2022/11/20 09:04:37;;;;;;;22.65;14.27;;;5.80;99.90;;;;;;4143189;28;20381;-67
2022/11/20 09:06:37;;;;;;;20.30;12.70;;;5.80;99.90;;;;;;4146266;28;20062;-68
2022/11/20 09:08:38;;;;;;;20.77;13.10;;;5.90;99.90;;;;;;4148206;28;20033;-67
2022/11/20 09:10:41;;;;;;;18.55;12.27;;;6.00;99.90;;;;;;4151580;28;20043;-67
2022/11/20 09:12:42;;;;;;;23.00;13.85;;;6.00;99.90;;;;;;4148385;28;20041;-73
2022/11/20 09:14:43;;;;;;;19.17;12.95;;;6.00;99.90;;;;;;4143007;28;20680;-68
2022/11/20 09:16:45;;;;;;;23.05;13.20;;;6.00;99.90;;;;;;4148719;28;20096;-68
2022/11/20 09:18:46;;;;;;;16.42;11.88;;;6.00;99.90;;;;;;4148343;28;20031;-68
2022/11/20 09:20:46;;;;;;;17.42;11.73;;;6.00;99.90;;;;;;4145088;28;20115;-68
2022/11/20 09:22:47;;;;;;;17.98;12.23;;;5.90;99.90;;;;;;4157471;28;20033;-68
2022/11/20 09:24:48;;;;;;;19.60;12.70;;;6.00;99.90;;;;;;4151966;28;20036;-68
2022/11/20 09:26:49;;;;;;;18.92;12.70;;;6.00;99.90;;;;;;4150561;28;20053;-69
2022/11/20 09:28:49;;;;;;;19.25;12.43;;;5.90;99.90;;;;;;4150171;28;20023;-68
2022/11/20 09:30:50;;;;;;;21.20;13.35;;;6.00;99.90;;;;;;4140491;28;20099;-68
2022/11/20 09:32:51;;;;;;;17.13;12.23;;;5.90;99.90;;;;;;4147541;28;20033;-68
2022/11/20 09:34:51;;;;;;;21.08;12.63;;;5.90;99.90;;;;;;4157760;28;20049;-68
2022/11/20 09:36:52;;;;;;;21.52;13.70;;;5.90;99.90;;;;;;4149973;28;20046;-68
2022/11/20 09:38:53;;;;;;;20.35;13.00;;;5.90;99.90;;;;;;4150399;28;20494;-68
2022/11/20 09:41:02;;;;;;;21.42;13.50;;;5.90;99.90;;;;;;4155756;28;20025;-68
2022/11/20 09:43:15;;;;;;;22.05;13.60;;;5.90;99.90;;;;;;4155798;28;20042;-68
2022/11/20 09:45:22;;;;;;;21.67;13.85;;;5.90;99.90;;;;;;4140653;28;20038;-68
2022/11/20 09:47:50;;;;;;;21.00;12.45;;;5.80;99.90;;;;;;4155395;28;20041;-69
2022/11/20 09:49:59;;;;;;;20.73;13.23;;;5.90;99.90;;;;;;4146928;28;20057;-68
2022/11/20 09:52:28;;;;;;;20.38;13.55;;;5.80;99.90;;;;;;4147295;28;20037;-68
2022/11/20 09:54:36;;;;;;;22.45;13.43;;;5.90;99.90;;;;;;4132647;28;20030;-68
2022/11/20 09:56:41;;;;;;;21.40;13.38;;;5.90;99.90;;;;;;4148888;28;20414;-68
2022/11/20 09:58:45;;;;;;;22.30;14.13;;;5.90;99.90;;;;;;4151843;28;20030;-68
2022/11/20 10:00:47;;;;;;;22.65;13.95;;;5.90;99.90;;;;;;4148214;28;20117;-68
2022/11/20 10:03:18;;;;;;;25.75;15.57;;;5.80;99.90;;;;;;4156198;28;20038;-69
2022/11/20 10:05:40;;;;;;;21.13;13.73;;;5.80;99.90;;;;;;4148994;28;20049;-68
2022/11/20 10:07:41;;;;;;;22.90;13.77;;;5.80;99.90;;;;;;4152569;28;20034;-68
2022/11/20 10:09:52;;;;;;;23.75;14.77;;;5.80;99.90;;;;;;4151889;28;20176;-68
2022/11/20 10:12:11;;;;;;;23.70;15.07;;;5.80;99.90;;;;;;4153478;28;20038;-68
2022/11/20 10:14:27;;;;;;;22.88;14.43;;;5.80;99.90;;;;;;4151363;28;20042;-67
2022/11/20 10:16:33;;;;;;;24.17;14.52;;;5.80;99.90;;;;;;4156025;28;20038;-68
2022/11/20 10:18:43;;;;;;;26.75;15.68;;;5.80;99.90;;;;;;4156358;28;20029;-68
2022/11/20 10:21:00;;;;;;;24.17;14.40;;;5.80;99.90;;;;;;4151470;28;20034;-68
2022/11/20 10:23:26;;;;;;;24.60;15.88;;;5.80;99.90;;;;;;4151945;28;20504;-68
2022/11/20 10:25:35;;;;;;;26.02;15.30;;;5.80;99.90;;;;;;4144646;28;20037;-68
2022/11/20 10:27:39;;;;;;;24.95;15.43;;;5.70;99.90;;;;;;4151577;28;20038;-68
2022/11/20 10:29:44;;;;;;;23.98;14.55;;;5.70;99.90;;;;;;4149421;28;20030;-68
2022/11/20 10:31:59;;;;;;;25.90;15.32;;;5.70;99.90;;;;;;4154267;28;20486;-68
2022/11/20 10:34:06;;;;;;;27.10;16.48;;;5.70;99.90;;;;;;4151603;28;20136;-68
2022/11/20 10:36:22;;;;;;;25.20;15.30;;;5.70;99.90;;;;;;4143719;28;20026;-68